»·PEaware :: SWA100 KLAS-KSAN

SWA100 :: KLAS-KSAN

FLIGHT INFORMATION

Flight Status: Arrived
Operator:
Southwest Airlines
More flights by this operator :: More flights under this callsign
Pilot: Drew L. (13237)
Aircraft: BOEING 737-700
(B737)
More flights by this aircraft type
Origin: KLAS McCarran Intl
United States
Destination: KSAN San Diego Intl-Lindbergh
United States
More flights between these airports :: More routes between these airports
Route: BOACH8 LVELL LUCKI1
File this flight plan on PilotEdge
Remarks: RMK / SIMBRIEF
Altitude:
(Current/Filed)
34,000ft
Speed:
(Current/Filed)
432kts
Departed: 01-Sep-20 05:45 PM
Arrived: 01-Sep-20 06:27 PM
Distance/Time
Traveled:
225nm/0:42
Distance/Time
To Go:
Arrived

Flight Plot

Page will automatically refresh every two minutes.

Flight plan parsing failed; only flown route is shown


Map Options




Map Legend


Flown Route
Filed Route
Departure Airport
Arrival Airport
Navaid (VOR, NDB)
Fix

Horizontal Profiles

Position Reports

Time Latitude Longitude Heading Altitude Ground
Speed
01-Sep-20 17:22 36.081650 -115.148227 65 2186ft 0kts
01-Sep-20 17:23 36.081650 -115.148227 65 2186ft 0kts
01-Sep-20 17:24 36.081650 -115.148227 65 2186ft 0kts
01-Sep-20 17:25 36.081650 -115.148227 65 2186ft 0kts
01-Sep-20 17:26 36.081650 -115.148227 65 2186ft 0kts
01-Sep-20 17:27 36.081650 -115.148227 65 2186ft 0kts
01-Sep-20 17:28 36.081564 -115.148554 96 2186ft 2kts
01-Sep-20 17:29 36.081805 -115.148945 154 2186ft 0kts
01-Sep-20 17:30 36.081805 -115.148945 154 2186ft 0kts
01-Sep-20 17:31 36.081805 -115.148945 154 2186ft 0kts
01-Sep-20 17:32 36.081342 -115.148675 154 2186ft 8kts
01-Sep-20 17:33 36.078501 -115.146652 93 2186ft 11kts
01-Sep-20 17:34 36.078289 -115.142990 92 2186ft 9kts
01-Sep-20 17:35 36.078295 -115.138932 87 2186ft 13kts
01-Sep-20 17:36 36.078292 -115.134474 89 2186ft 13kts
01-Sep-20 17:37 36.078313 -115.129503 92 2186ft 13kts
01-Sep-20 17:38 36.078321 -115.124986 89 2186ft 12kts
01-Sep-20 17:39 36.077579 -115.121500 130 2186ft 2kts
01-Sep-20 17:40 36.077566 -115.121481 130 2186ft 0kts
01-Sep-20 17:41 36.077566 -115.121481 130 2186ft 0kts
01-Sep-20 17:42 36.077559 -115.121470 130 2186ft 1kts
01-Sep-20 17:43 36.076468 -115.121642 268 2186ft 0kts
01-Sep-20 17:44 36.076443 -115.129207 269 2186ft 112kts
01-Sep-20 17:45 36.077114 -115.187042 265 4023ft 196kts
01-Sep-20 17:46 36.049651 -115.256952 222 6001ft 261kts
01-Sep-20 17:47 35.977445 -115.298337 196 8810ft 302kts
01-Sep-20 17:48 35.890335 -115.311266 186 11340ft 343kts
01-Sep-20 17:49 35.787081 -115.313745 189 13479ft 385kts
01-Sep-20 17:50 35.678224 -115.334605 190 16414ft 401kts
01-Sep-20 17:51 35.564358 -115.356703 189 19212ft 417kts
01-Sep-20 17:52 35.447921 -115.379232 189 21785ft 431kts
01-Sep-20 17:53 35.327681 -115.402427 189 24172ft 445kts
01-Sep-20 17:54 35.205400 -115.425937 189 27136ft 440kts
01-Sep-20 17:55 35.083018 -115.449401 189 29167ft 453kts
01-Sep-20 17:56 34.957274 -115.473438 188 31187ft 460kts
01-Sep-20 17:57 34.832694 -115.497224 187 33717ft 449kts
01-Sep-20 17:58 34.707369 -115.521018 187 33924ft 459kts
01-Sep-20 17:59 34.581926 -115.544789 187 33992ft 457kts
01-Sep-20 18:00 34.456173 -115.568540 187 34011ft 458kts
01-Sep-20 18:01 34.330719 -115.592173 187 34011ft 457kts
01-Sep-20 18:02 34.205555 -115.618347 195 34015ft 459kts
01-Sep-20 18:03 34.085558 -115.673790 199 34013ft 467kts
01-Sep-20 18:04 33.962626 -115.731768 199 34006ft 476kts
01-Sep-20 18:05 33.840326 -115.790845 200 33562ft 475kts
01-Sep-20 18:06 33.718862 -115.849444 199 30762ft 465kts
01-Sep-20 18:07 33.601038 -115.904407 199 28129ft 445kts
01-Sep-20 18:08 33.499822 -115.982125 224 25540ft 431kts
01-Sep-20 18:09 33.413492 -116.075741 215 22981ft 411kts
01-Sep-20 18:10 33.324692 -116.156352 216 20498ft 393kts
01-Sep-20 18:11 33.239899 -116.233109 216 18283ft 372kts
01-Sep-20 18:12 33.159462 -116.305729 216 16176ft 354kts
01-Sep-20 18:13 33.082524 -116.375023 216 14200ft 346kts
01-Sep-20 18:14 33.012015 -116.455939 226 12100ft 350kts
01-Sep-20 18:15 32.946302 -116.542332 228 10500ft 353kts
01-Sep-20 18:16 32.885115 -116.622611 228 9983ft 298kts
01-Sep-20 18:17 32.830171 -116.694573 228 8816ft 292kts
01-Sep-20 18:18 32.775288 -116.766323 228 7006ft 290kts
01-Sep-20 18:19 32.722613 -116.835028 229 5193ft 274kts
01-Sep-20 18:20 32.682063 -116.901360 250 4493ft 223kts
01-Sep-20 18:21 32.680159 -116.968552 286 3392ft 193kts
01-Sep-20 18:22 32.694025 -117.027231 284 2585ft 185kts
01-Sep-20 18:23 32.707186 -117.081119 284 1910ft 148kts
01-Sep-20 18:24 32.718186 -117.126348 284 1020ft 141kts
01-Sep-20 18:25 32.728872 -117.170494 285 290ft 144kts
01-Sep-20 18:26 32.736032 -117.199986 285 17ft 8kts
01-Sep-20 18:27 32.735124 -117.200465 106 17ft 13kts
01-Sep-20 18:28 32.732986 -117.197261 155 18ft 7kts
01-Sep-20 18:29 32.732769 -117.197018 133 18ft 0kts
01-Sep-20 18:30 32.732769 -117.197018 133 18ft 0kts

Navigation Log

Ident Type
Flight plan parsing failed, navigation log unavailable